Time;durP1;ratioP1;P1;durP2;ratioP2;P2;SDS_P1;SDS_P2;PMS_P1;PMS_P2;Temp;Humidity;BMP_temperature;BMP_pressure;BME280_temperature;BME280_humidity;BME280_pressure;Samples;Min_cycle;Max_cycle;Signal;HPM_P1;HPM_P2
2021/10/08 00:02:22;;;;;;;2.25;0.82;;;13.80;99.90;;;;;;5032148;28;20082;-72
2021/10/08 00:05:26;;;;;;;9.02;1.02;;;13.80;99.90;;;;;;5033634;28;20040;-72
2021/10/08 00:08:30;;;;;;;3.85;0.70;;;13.90;99.90;;;;;;5033327;28;20061;-72
2021/10/08 00:11:34;;;;;;;2.85;1.00;;;13.90;99.90;;;;;;5042660;28;20055;-71
2021/10/08 00:14:40;;;;;;;3.17;0.70;;;13.80;99.90;;;;;;5053599;28;20055;-71
2021/10/08 00:17:44;;;;;;;3.47;0.98;;;13.80;99.90;;;;;;5052438;28;20048;-74
2021/10/08 00:20:50;;;;;;;3.47;1.05;;;13.70;99.90;;;;;;5045193;28;20068;-72
2021/10/08 00:23:55;;;;;;;3.28;0.70;;;13.60;99.90;;;;;;5034332;28;20403;-72
2021/10/08 00:26:59;;;;;;;1.73;1.00;;;13.60;99.90;;;;;;5033344;28;20041;-72
2021/10/08 00:30:04;;;;;;;2.92;0.93;;;13.60;99.90;;;;;;5033571;28;20048;-72
2021/10/08 00:33:08;;;;;;;2.17;0.85;;;13.60;99.90;;;;;;5036125;28;20078;-72
2021/10/08 00:36:13;;;;;;;2.53;0.80;;;13.60;99.90;;;;;;5055137;28;20036;-72
2021/10/08 00:39:17;;;;;;;2.65;0.90;;;13.70;99.90;;;;;;5043134;28;20053;-72
2021/10/08 00:42:26;;;;;;;2.15;1.00;;;13.80;99.90;;;;;;5033949;28;20045;-72
2021/10/08 00:45:31;;;;;;;1.48;1.00;;;13.90;99.90;;;;;;5045908;28;20048;-72
2021/10/08 00:48:35;;;;;;;3.72;0.93;;;13.90;99.90;;;;;;5052420;28;20044;-73
2021/10/08 00:51:40;;;;;;;4.32;1.20;;;13.90;99.90;;;;;;5052327;28;20071;-73
2021/10/08 00:54:44;;;;;;;3.92;0.90;;;14.00;99.90;;;;;;5053811;28;20407;-73
2021/10/08 00:57:49;;;;;;;4.00;0.82;;;14.00;99.90;;;;;;5048822;28;20411;-72
2021/10/08 01:00:53;;;;;;;4.18;0.95;;;14.00;99.90;;;;;;5043155;28;20052;-72
2021/10/08 01:03:57;;;;;;;2.25;0.75;;;13.90;99.90;;;;;;5032431;28;20056;-72
2021/10/08 01:07:02;;;;;;;3.33;1.00;;;13.90;99.90;;;;;;5033463;28;20049;-72
2021/10/08 01:10:08;;;;;;;4.97;1.25;;;13.80;99.90;;;;;;5037885;28;20396;-72
2021/10/08 01:13:14;;;;;;;3.45;0.90;;;13.60;99.90;;;;;;5051405;28;20043;-72
2021/10/08 01:16:23;;;;;;;1.98;0.80;;;13.50;99.90;;;;;;5052958;28;20499;-72
2021/10/08 01:19:30;;;;;;;4.75;1.20;;;13.40;99.90;;;;;;5041378;28;20040;-72
2021/10/08 01:22:38;;;;;;;3.97;1.10;;;13.30;99.90;;;;;;5031570;28;20052;-72
2021/10/08 01:25:51;;;;;;;2.63;1.23;;;13.30;99.90;;;;;;5032919;28;20044;-72
2021/10/08 01:29:09;;;;;;;6.45;1.20;;;13.40;99.90;;;;;;5031656;28;20049;-72
2021/10/08 01:32:17;;;;;;;3.55;1.00;;;13.40;99.90;;;;;;5040463;28;20044;-72
2021/10/08 01:35:22;;;;;;;1.85;0.90;;;13.40;99.90;;;;;;5052364;28;20044;-72
2021/10/08 01:38:33;;;;;;;4.93;1.00;;;13.30;99.90;;;;;;5031849;28;20048;-72
2021/10/08 01:41:38;;;;;;;6.13;1.10;;;13.30;99.90;;;;;;5036136;28;20064;-73
2021/10/08 01:44:42;;;;;;;3.28;1.08;;;13.40;99.90;;;;;;5032526;28;20047;-72
2021/10/08 01:47:47;;;;;;;4.55;1.13;;;13.50;99.90;;;;;;5031682;28;20040;-72
2021/10/08 01:50:51;;;;;;;2.70;0.93;;;13.50;99.90;;;;;;5033005;28;20044;-70
2021/10/08 01:53:56;;;;;;;4.35;1.10;;;13.60;99.90;;;;;;5038472;28;20047;-70
2021/10/08 01:57:01;;;;;;;4.28;1.40;;;13.70;99.90;;;;;;5033954;28;20044;-71
2021/10/08 02:00:06;;;;;;;2.78;1.10;;;13.70;99.90;;;;;;5032495;28;20056;-71
2021/10/08 02:03:17;;;;;;;6.03;2.17;;;13.70;99.90;;;;;;5042352;28;20040;-71
2021/10/08 02:06:21;;;;;;;4.68;1.02;;;13.70;99.90;;;;;;5051634;28;20040;-70
2021/10/08 02:09:25;;;;;;;3.17;1.27;;;13.70;99.90;;;;;;5031085;28;20507;-70
2021/10/08 02:12:29;;;;;;;4.47;1.23;;;13.50;99.90;;;;;;5031634;28;20044;-70
2021/10/08 02:15:34;;;;;;;5.70;2.08;;;13.40;99.90;;;;;;5031816;28;20431;-69
2021/10/08 02:18:38;;;;;;;4.70;1.20;;;13.10;99.90;;;;;;5048257;28;20403;-69
2021/10/08 02:21:44;;;;;;;9.75;1.65;;;13.00;99.90;;;;;;5050015;28;20387;-68
2021/10/08 02:24:50;;;;;;;3.35;1.05;;;12.90;99.90;;;;;;5049953;28;20048;-69
2021/10/08 02:27:54;;;;;;;5.85;1.20;;;12.90;99.90;;;;;;5030957;28;20045;-70
2021/10/08 02:30:58;;;;;;;4.57;1.20;;;12.90;99.90;;;;;;5034925;28;20040;-70
2021/10/08 02:34:08;;;;;;;4.25;1.33;;;12.90;99.90;;;;;;5030540;28;21241;-69
2021/10/08 02:37:12;;;;;;;5.05;1.30;;;13.00;99.90;;;;;;5030303;28;20040;-70
2021/10/08 02:40:17;;;;;;;3.65;1.48;;;13.10;99.90;;;;;;5034512;28;20037;-70
2021/10/08 02:43:21;;;;;;;2.35;1.40;;;13.10;99.90;;;;;;5034897;28;20040;-70
2021/10/08 02:46:26;;;;;;;4.30;1.30;;;13.10;99.90;;;;;;5029887;28;20041;-70
2021/10/08 02:49:31;;;;;;;4.72;1.40;;;13.20;99.90;;;;;;5031707;28;20060;-72
2021/10/08 02:52:38;;;;;;;5.55;1.60;;;13.20;99.90;;;;;;5034078;28;20056;-74
2021/10/08 02:55:45;;;;;;;14.38;1.85;;;13.20;99.90;;;;;;5030750;28;20048;-72
2021/10/08 02:58:49;;;;;;;4.60;1.40;;;13.20;99.90;;;;;;5045673;28;20064;-73
2021/10/08 03:01:53;;;;;;;4.63;1.55;;;13.20;99.90;;;;;;5049358;28;20064;-73
2021/10/08 03:04:58;;;;;;;3.13;1.30;;;13.20;99.90;;;;;;5049860;28;20056;-72
2021/10/08 03:08:05;;;;;;;3.53;1.38;;;13.20;99.90;;;;;;5030210;28;20060;-72
2021/10/08 03:11:09;;;;;;;3.45;1.45;;;13.20;99.90;;;;;;5036496;28;20048;-72
2021/10/08 03:14:13;;;;;;;2.95;1.13;;;13.20;99.90;;;;;;5049928;28;20036;-72
2021/10/08 03:17:18;;;;;;;5.40;1.83;;;13.20;99.90;;;;;;5030355;28;20044;-72
2021/10/08 03:20:22;;;;;;;2.58;1.23;;;13.20;99.90;;;;;;5042516;28;20051;-72
2021/10/08 03:23:27;;;;;;;3.28;1.13;;;13.20;99.90;;;;;;5049231;28;20052;-72
2021/10/08 03:26:35;;;;;;;3.50;1.17;;;13.20;99.90;;;;;;5031196;28;20040;-72
2021/10/08 03:29:41;;;;;;;2.55;1.20;;;13.20;99.90;;;;;;5033385;28;20060;-72
2021/10/08 03:32:45;;;;;;;1.67;1.00;;;13.20;99.90;;;;;;5029531;28;20048;-72
2021/10/08 03:35:49;;;;;;;2.95;1.02;;;13.30;99.90;;;;;;5029771;28;20502;-73
2021/10/08 03:38:53;;;;;;;4.65;1.30;;;13.20;99.90;;;;;;5032867;28;20056;-72
2021/10/08 03:41:58;;;;;;;3.10;1.10;;;13.20;99.90;;;;;;5036216;28;20052;-73
2021/10/08 03:45:10;;;;;;;3.20;1.58;;;13.20;99.90;;;;;;5054086;28;20052;-72
2021/10/08 03:51:38;;;;;;;2.38;1.10;;;13.20;99.90;;;;;;5032752;28;20514;-73
2021/10/08 03:54:42;;;;;;;6.57;1.08;;;13.10;99.90;;;;;;5033270;28;20388;-73
2021/10/08 03:57:46;;;;;;;3.08;1.10;;;13.20;99.90;;;;;;5033939;28;20048;-72
2021/10/08 04:00:52;;;;;;;3.22;1.40;;;13.10;99.90;;;;;;5037685;28;20045;-73
2021/10/08 04:04:00;;;;;;;2.70;1.08;;;13.10;99.90;;;;;;5037740;28;20044;-72
2021/10/08 04:07:05;;;;;;;7.78;1.27;;;13.20;99.90;;;;;;5035178;28;20048;-72
2021/10/08 04:10:09;;;;;;;3.45;1.20;;;13.20;99.90;;;;;;5032983;28;20040;-72
2021/10/08 04:13:14;;;;;;;3.00;1.08;;;13.20;99.90;;;;;;5038020;28;20049;-72
2021/10/08 04:16:20;;;;;;;4.70;1.15;;;13.20;99.90;;;;;;5033415;28;20049;-73
2021/10/08 04:19:25;;;;;;;2.42;0.93;;;13.50;99.90;;;;;;5032506;28;20048;-72
2021/10/08 04:22:30;;;;;;;1.55;0.82;;;13.50;99.90;;;;;;5038860;28;20056;-72
2021/10/08 04:25:34;;;;;;;2.63;1.10;;;13.40;99.90;;;;;;5054728;28;20063;-72
2021/10/08 04:28:40;;;;;;;8.48;0.98;;;13.40;99.90;;;;;;5052709;28;20040;-72
2021/10/08 04:31:45;;;;;;;3.78;0.88;;;13.40;99.90;;;;;;5046924;28;20396;-72
2021/10/08 04:34:51;;;;;;;2.25;1.00;;;13.50;99.90;;;;;;5051963;28;20040;-72
2021/10/08 04:37:56;;;;;;;2.05;0.98;;;13.50;99.90;;;;;;5033210;28;20044;-72
2021/10/08 04:41:01;;;;;;;1.67;0.88;;;13.50;99.90;;;;;;5046018;28;20048;-72
2021/10/08 04:44:06;;;;;;;1.77;1.00;;;13.50;99.90;;;;;;5049544;28;20043;-72
2021/10/08 04:47:12;;;;;;;3.83;0.95;;;13.50;99.90;;;;;;5033015;28;20056;-72
2021/10/08 04:50:17;;;;;;;4.40;1.10;;;13.50;99.90;;;;;;5037494;28;20054;-72
2021/10/08 04:53:23;;;;;;;2.40;0.85;;;13.50;99.90;;;;;;5032858;28;20040;-72
2021/10/08 04:56:33;;;;;;;1.65;0.70;;;13.50;99.90;;;;;;5053214;28;20036;-72
2021/10/08 04:59:38;;;;;;;4.22;0.85;;;13.60;99.90;;;;;;5052006;28;20056;-73
2021/10/08 05:02:42;;;;;;;1.85;0.73;;;13.70;99.90;;;;;;5048190;28;20048;-74
2021/10/08 05:05:52;;;;;;;3.60;0.98;;;13.70;99.90;;;;;;5032738;28;20037;-72
2021/10/08 05:09:01;;;;;;;2.15;0.93;;;13.70;99.90;;;;;;5051635;28;20048;-72
2021/10/08 05:12:06;;;;;;;3.67;1.00;;;13.60;99.90;;;;;;5047245;28;20047;-72
2021/10/08 05:15:11;;;;;;;4.68;0.82;;;13.60;99.90;;;;;;5052332;28;20052;-72
2021/10/08 05:18:16;;;;;;;1.08;0.85;;;13.60;99.90;;;;;;5052974;28;20040;-73
2021/10/08 05:21:23;;;;;;;4.25;1.15;;;13.50;99.90;;;;;;5036663;28;20239;-72
2021/10/08 05:24:28;;;;;;;1.40;0.70;;;13.50;99.90;;;;;;5031534;28;20049;-72
2021/10/08 05:27:32;;;;;;;1.73;1.15;;;13.50;99.90;;;;;;5031848;28;20052;-72
2021/10/08 05:30:37;;;;;;;3.72;1.00;;;13.50;99.90;;;;;;5031702;28;20057;-72
2021/10/08 05:33:43;;;;;;;2.30;1.05;;;13.50;99.90;;;;;;5031861;28;20048;-72
2021/10/08 05:36:51;;;;;;;3.13;1.10;;;13.40;99.90;;;;;;5031022;28;20040;-72
2021/10/08 05:40:00;;;;;;;2.75;0.80;;;13.40;99.90;;;;;;5047512;28;20404;-73
2021/10/08 05:43:04;;;;;;;8.88;1.05;;;13.40;99.90;;;;;;5045930;28;20044;-72
2021/10/08 05:46:13;;;;;;;1.48;0.80;;;13.40;99.90;;;;;;5033081;28;20049;-72
2021/10/08 05:49:17;;;;;;;3.83;0.90;;;13.40;99.90;;;;;;5049126;28;20048;-73
2021/10/08 05:52:25;;;;;;;3.25;1.10;;;13.40;99.90;;;;;;5039122;28;20048;-73
2021/10/08 05:55:31;;;;;;;0.80;0.60;;;13.40;99.90;;;;;;5031216;28;20040;-72
2021/10/08 05:58:35;;;;;;;1.08;0.52;;;13.40;99.90;;;;;;5038825;28;20056;-72
2021/10/08 06:01:42;;;;;;;3.15;0.90;;;13.40;99.90;;;;;;5047187;28;20486;-72
2021/10/08 06:04:48;;;;;;;2.38;0.70;;;13.40;99.90;;;;;;5025011;28;20036;-72
2021/10/08 06:07:52;;;;;;;1.52;0.60;;;13.50;99.90;;;;;;5032019;28;20041;-72
2021/10/08 06:10:57;;;;;;;5.35;0.80;;;13.50;99.90;;;;;;5048118;28;20035;-72
2021/10/08 06:14:01;;;;;;;1.23;0.77;;;13.60;99.90;;;;;;5049962;28;20040;-72
2021/10/08 06:17:06;;;;;;;1.35;0.60;;;13.60;99.90;;;;;;5046324;28;20044;-72
2021/10/08 06:20:12;;;;;;;3.17;0.77;;;13.70;99.90;;;;;;5045833;28;20040;-72
2021/10/08 06:23:18;;;;;;;1.35;0.60;;;13.80;99.90;;;;;;5050454;28;20039;-72
2021/10/08 06:26:22;;;;;;;1.67;0.70;;;13.90;99.90;;;;;;5051197;28;20052;-73
2021/10/08 06:29:27;;;;;;;1.75;0.60;;;13.90;99.90;;;;;;5033228;28;20053;-72
2021/10/08 06:32:31;;;;;;;2.28;0.80;;;14.10;99.90;;;;;;5029906;28;20048;-72
2021/10/08 06:35:38;;;;;;;1.58;0.90;;;14.10;99.90;;;;;;5030813;28;20061;-73
2021/10/08 06:38:43;;;;;;;2.30;1.02;;;14.20;99.90;;;;;;5031175;28;20052;-72
2021/10/08 06:41:48;;;;;;;2.30;1.35;;;14.30;99.90;;;;;;5047708;28;20040;-73
2021/10/08 06:45:00;;;;;;;2.90;1.92;;;14.50;99.90;;;;;;5050468;28;20048;-74
2021/10/08 06:48:05;;;;;;;3.90;1.65;;;14.70;99.90;;;;;;5050460;28;20064;-72
2021/10/08 06:51:13;;;;;;;5.70;2.20;;;14.70;99.90;;;;;;5046437;28;20595;-73
2021/10/08 06:54:18;;;;;;;2.10;1.33;;;14.70;99.90;;;;;;5051186;28;20936;-73
2021/10/08 06:57:22;;;;;;;2.83;1.17;;;14.70;99.90;;;;;;5033602;28;20400;-73
2021/10/08 07:00:28;;;;;;;2.67;1.23;;;14.70;99.90;;;;;;5040555;28;20044;-72
2021/10/08 07:03:33;;;;;;;2.45;1.20;;;14.80;99.90;;;;;;5032687;28;20606;-73
2021/10/08 07:06:38;;;;;;;4.10;1.27;;;14.90;99.90;;;;;;5030886;28;20048;-72
2021/10/08 07:09:49;;;;;;;2.28;1.10;;;14.80;99.90;;;;;;5046545;28;20044;-72
2021/10/08 07:12:53;;;;;;;1.95;0.98;;;14.80;99.90;;;;;;5043775;28;20047;-72
2021/10/08 07:16:01;;;;;;;3.67;1.10;;;14.70;99.90;;;;;;5050318;28;20052;-73
2021/10/08 07:19:13;;;;;;;5.10;1.23;;;14.70;99.90;;;;;;5042506;28;20052;-73
2021/10/08 07:22:17;;;;;;;6.60;0.90;;;14.60;99.90;;;;;;5040815;28;20048;-73
2021/10/08 07:25:27;;;;;;;2.30;1.13;;;14.60;99.90;;;;;;5037172;28;20048;-73
2021/10/08 07:28:31;;;;;;;2.60;1.27;;;14.60;99.90;;;;;;5037936;28;20048;-73
2021/10/08 07:31:35;;;;;;;4.55;1.33;;;14.70;99.90;;;;;;5052491;28;20044;-73
2021/10/08 07:34:40;;;;;;;3.65;1.05;;;14.80;99.90;;;;;;5031689;28;20499;-73
2021/10/08 07:37:45;;;;;;;4.30;1.77;;;14.60;99.90;;;;;;5039891;28;20040;-72
2021/10/08 07:40:51;;;;;;;4.43;1.50;;;14.60;99.90;;;;;;5034452;28;20045;-73
2021/10/08 07:43:54;;;;;;;5.20;1.40;;;14.60;99.90;;;;;;5034497;28;20048;-73
2021/10/08 07:46:59;;;;;;;2.25;1.05;;;14.60;99.90;;;;;;5052478;28;20124;-73
2021/10/08 07:50:05;;;;;;;4.40;1.52;;;14.70;99.90;;;;;;5049474;28;20044;-71
2021/10/08 07:53:10;;;;;;;3.20;1.33;;;14.70;99.90;;;;;;5045045;28;20040;-70
2021/10/08 07:56:13;;;;;;;2.03;1.17;;;15.00;99.90;;;;;;5051310;28;20039;-70
2021/10/08 07:59:19;;;;;;;6.35;1.65;;;15.30;99.90;;;;;;5030897;28;20499;-71
2021/10/08 08:02:28;;;;;;;2.72;1.52;;;15.20;99.90;;;;;;5038011;28;20045;-70
2021/10/08 08:05:32;;;;;;;5.18;1.30;;;15.20;99.90;;;;;;5030600;28;20048;-71
2021/10/08 08:08:36;;;;;;;2.88;1.33;;;15.40;99.90;;;;;;5031264;28;20056;-71
2021/10/08 08:11:42;;;;;;;4.47;1.10;;;14.90;99.90;;;;;;5048262;28;20506;-71
2021/10/08 08:14:46;;;;;;;1.98;1.08;;;14.80;99.90;;;;;;5029912;28;20044;-71
2021/10/08 08:17:51;;;;;;;3.35;1.20;;;14.90;99.90;;;;;;5044421;28;20391;-70
2021/10/08 08:20:55;;;;;;;3.30;1.20;;;15.00;99.90;;;;;;5041872;28;20033;-71
2021/10/08 08:23:59;;;;;;;8.02;1.90;;;15.20;99.90;;;;;;5048355;28;20048;-71
2021/10/08 08:27:03;;;;;;;1.85;1.35;;;15.30;99.90;;;;;;5051510;28;20395;-71
2021/10/08 08:30:09;;;;;;;3.17;1.52;;;15.20;99.90;;;;;;5035813;28;20518;-71
2021/10/08 08:33:14;;;;;;;3.83;1.42;;;15.20;99.90;;;;;;5043609;28;20483;-70
2021/10/08 08:36:18;;;;;;;4.07;1.70;;;15.60;99.90;;;;;;5052017;28;20048;-70
2021/10/08 08:39:23;;;;;;;4.10;1.33;;;15.80;99.90;;;;;;5035125;28;20036;-70
2021/10/08 08:42:27;;;;;;;4.20;1.27;;;15.40;99.90;;;;;;5038010;28;20044;-71
2021/10/08 08:45:32;;;;;;;3.90;1.48;;;15.30;99.90;;;;;;5034088;28;20121;-71
2021/10/08 08:48:36;;;;;;;3.33;1.48;;;15.40;99.90;;;;;;5033304;28;20052;-71
2021/10/08 08:51:44;;;;;;;2.75;1.50;;;15.60;99.90;;;;;;5032602;28;20045;-71
2021/10/08 08:54:51;;;;;;;4.32;1.63;;;16.00;99.90;;;;;;5036350;28;20045;-74
2021/10/08 08:57:57;;;;;;;5.40;2.00;;;16.30;99.90;;;;;;5041163;28;20044;-73
2021/10/08 09:01:03;;;;;;;3.08;1.50;;;15.80;99.90;;;;;;5040721;28;20067;-73
2021/10/08 09:04:08;;;;;;;3.78;1.90;;;15.80;99.90;;;;;;5042294;28;20048;-71
2021/10/08 09:07:14;;;;;;;3.08;1.45;;;15.80;99.90;;;;;;5044874;28;20108;-73
2021/10/08 09:10:21;;;;;;;7.00;1.63;;;16.00;99.90;;;;;;5045047;28;20044;-72
2021/10/08 09:13:27;;;;;;;4.18;1.38;;;16.00;99.90;;;;;;5049841;28;20796;-74
2021/10/08 09:16:31;;;;;;;3.53;1.30;;;16.00;99.90;;;;;;5036452;28;20060;-74
2021/10/08 09:19:49;;;;;;;4.13;1.70;;;16.00;99.90;;;;;;5032287;28;20056;-73
2021/10/08 09:22:55;;;;;;;2.53;1.35;;;16.00;99.90;;;;;;5033282;28;20052;-71
2021/10/08 09:25:59;;;;;;;2.22;1.20;;;15.80;99.90;;;;;;5044254;28;20028;-71
2021/10/08 09:29:08;;;;;;;1.95;1.00;;;15.70;99.90;;;;;;5034405;28;20395;-71
2021/10/08 09:32:12;;;;;;;4.53;1.73;;;15.70;99.90;;;;;;5035638;28;20040;-72
2021/10/08 09:35:23;;;;;;;2.65;2.00;;;15.70;99.90;;;;;;5034067;28;20048;-72
2021/10/08 09:38:32;;;;;;;3.58;2.05;;;15.70;99.90;;;;;;5052281;28;20354;-71
2021/10/08 09:41:40;;;;;;;4.22;1.48;;;15.70;99.90;;;;;;5039053;28;20412;-72
2021/10/08 09:44:51;;;;;;;2.60;1.73;;;15.90;99.90;;;;;;5045665;28;20040;-71
2021/10/08 09:47:59;;;;;;;2.83;1.67;;;15.80;99.90;;;;;;5039480;28;20072;-71
2021/10/08 09:51:12;;;;;;;2.88;1.27;;;15.80;99.90;;;;;;5040975;28;20442;-72
2021/10/08 09:54:16;;;;;;;3.65;1.90;;;15.80;99.90;;;;;;5047478;28;20044;-71
2021/10/08 09:57:22;;;;;;;6.22;2.00;;;16.00;99.90;;;;;;5031617;28;20558;-71
2021/10/08 10:00:35;;;;;;;6.50;2.08;;;16.00;99.90;;;;;;5045753;28;20044;-72
2021/10/08 10:03:51;;;;;;;7.30;2.45;;;15.80;99.90;;;;;;5033318;28;20025;-71
2021/10/08 10:06:55;;;;;;;4.45;2.08;;;15.80;99.90;;;;;;5031818;28;20071;-72
2021/10/08 10:10:00;;;;;;;3.60;2.00;;;15.90;99.90;;;;;;5050099;28;20052;-71
2021/10/08 10:13:10;;;;;;;4.28;2.60;;;15.90;99.90;;;;;;5036473;28;20049;-71
2021/10/08 10:16:16;;;;;;;3.30;2.08;;;15.90;99.90;;;;;;5030884;28;20044;-72
2021/10/08 10:19:20;;;;;;;4.72;2.38;;;15.90;99.90;;;;;;5030447;28;20049;-73
2021/10/08 10:22:30;;;;;;;4.75;1.63;;;16.00;99.90;;;;;;5041474;28;20456;-71
2021/10/08 10:25:39;;;;;;;5.03;1.90;;;16.20;99.90;;;;;;5044595;28;20059;-71
2021/10/08 10:28:43;;;;;;;6.78;2.00;;;16.40;99.90;;;;;;5051154;28;20075;-72
2021/10/08 10:31:48;;;;;;;4.22;2.30;;;16.60;99.90;;;;;;5050877;28;20163;-71
2021/10/08 10:34:53;;;;;;;4.63;2.00;;;16.90;99.90;;;;;;5051390;28;20040;-70
2021/10/08 10:38:22;;;;;;;6.60;2.50;;;17.00;99.90;;;;;;5038458;28;20053;-70
2021/10/08 10:41:27;;;;;;;6.40;2.53;;;17.30;99.90;;;;;;5051610;28;20044;-73
2021/10/08 10:44:37;;;;;;;9.30;2.50;;;17.50;99.90;;;;;;5043873;28;20403;-73
2021/10/08 10:47:43;;;;;;;3.63;2.45;;;17.90;99.90;;;;;;5043244;28;20048;-73
2021/10/08 10:51:14;;;;;;;6.10;2.88;;;17.80;99.90;;;;;;5032098;28;20044;-71
2021/10/08 10:54:19;;;;;;;8.55;2.63;;;17.80;99.90;;;;;;5038630;28;20040;-73
2021/10/08 10:57:29;;;;;;;4.68;2.08;;;17.70;99.90;;;;;;5046076;28;20048;-71
2021/10/08 11:00:44;;;;;;;6.50;2.38;;;17.80;99.90;;;;;;5045785;28;20052;-72
2021/10/08 11:03:49;;;;;;;4.03;2.17;;;17.90;99.90;;;;;;5042573;28;20044;-70
2021/10/08 11:07:15;;;;;;;4.25;2.00;;;18.20;99.90;;;;;;5037577;28;20036;-71
2021/10/08 11:10:19;;;;;;;6.47;2.40;;;18.30;99.90;;;;;;5042120;28;20048;-72
2021/10/08 11:13:26;;;;;;;3.55;2.35;;;18.30;99.90;;;;;;5045531;28;20598;-71
2021/10/08 11:16:31;;;;;;;4.38;1.90;;;18.40;99.90;;;;;;5032891;28;20045;-72
2021/10/08 11:19:40;;;;;;;7.00;2.22;;;18.30;99.90;;;;;;5029680;28;20052;-73
2021/10/08 11:22:45;;;;;;;4.25;2.08;;;18.30;99.90;;;;;;5040329;28;20048;-73
2021/10/08 11:25:55;;;;;;;8.00;2.20;;;18.20;99.90;;;;;;5039635;28;20495;-73
2021/10/08 11:29:00;;;;;;;7.35;2.30;;;18.00;99.90;;;;;;5032745;28;20048;-73
2021/10/08 11:32:05;;;;;;;4.38;2.33;;;17.70;99.90;;;;;;5036119;28;20036;-74
2021/10/08 11:35:10;;;;;;;5.05;1.95;;;17.60;99.90;;;;;;5030743;28;20048;-74
2021/10/08 11:38:18;;;;;;;3.80;2.10;;;17.50;99.90;;;;;;5043515;28;20040;-73
2021/10/08 11:41:25;;;;;;;4.75;1.95;;;17.30;99.90;;;;;;5045137;28;20420;-73
2021/10/08 11:44:35;;;;;;;4.60;2.30;;;17.40;99.90;;;;;;5045593;28;20040;-72
2021/10/08 11:53:55;;;;;;;4.50;1.92;;;17.70;99.90;;;;;;5046358;28;20056;-74
2021/10/08 11:57:04;;;;;;;6.50;1.85;;;17.40;99.90;;;;;;5038471;28;20041;-73
2021/10/08 12:00:09;;;;;;;4.10;2.13;;;17.20;99.90;;;;;;5039079;28;20577;-74
2021/10/08 12:03:25;;;;;;;3.58;1.90;;;16.70;99.90;;;;;;5037345;28;20506;-73
2021/10/08 12:06:32;;;;;;;4.60;1.77;;;16.60;99.90;;;;;;5043728;28;20052;-73
2021/10/08 12:09:37;;;;;;;2.15;1.00;;;16.50;99.90;;;;;;5050748;28;20040;-75
2021/10/08 12:12:53;;;;;;;1.40;1.10;;;16.50;99.90;;;;;;5048190;28;20074;-73
2021/10/08 12:15:57;;;;;;;4.07;1.48;;;16.40;99.90;;;;;;5043242;28;20036;-74
2021/10/08 12:19:01;;;;;;;1.98;1.25;;;16.30;99.90;;;;;;5043379;28;20043;-74
2021/10/08 12:22:24;;;;;;;3.05;1.30;;;16.00;99.90;;;;;;5046898;28;20039;-74
2021/10/08 12:25:28;;;;;;;2.10;1.15;;;15.80;99.90;;;;;;5036692;28;20040;-73
2021/10/08 12:28:35;;;;;;;3.60;1.20;;;15.70;99.90;;;;;;5049313;28;20055;-73
2021/10/08 12:31:46;;;;;;;2.17;1.20;;;15.60;99.90;;;;;;5051337;28;20120;-73
2021/10/08 12:34:54;;;;;;;1.67;1.40;;;15.60;99.90;;;;;;5036128;28;20097;-74
2021/10/08 12:38:01;;;;;;;2.83;1.40;;;15.50;99.90;;;;;;5049587;28;20522;-73
2021/10/08 12:41:22;;;;;;;2.13;1.38;;;15.30;99.90;;;;;;5038637;28;20052;-74
2021/10/08 12:44:34;;;;;;;2.20;1.20;;;15.40;99.90;;;;;;5036179;28;20037;-74
2021/10/08 12:47:39;;;;;;;4.55;1.58;;;15.50;99.90;;;;;;5038501;28;20048;-73
2021/10/08 12:50:44;;;;;;;6.32;1.52;;;15.60;99.90;;;;;;5038382;28;20040;-73
2021/10/08 12:53:48;;;;;;;2.40;1.33;;;15.70;99.90;;;;;;5042382;28;20032;-73
2021/10/08 12:57:12;;;;;;;2.80;1.23;;;15.50;99.90;;;;;;5041700;28;20071;-73
2021/10/08 13:00:44;;;;;;;1.75;1.20;;;15.70;99.90;;;;;;5041186;28;20045;-72
2021/10/08 13:03:50;;;;;;;2.70;1.17;;;16.10;99.90;;;;;;5041562;28;20122;-73
2021/10/08 13:07:16;;;;;;;1.65;0.75;;;16.70;99.90;;;;;;5043301;28;20114;-73
2021/10/08 13:10:21;;;;;;;1.30;0.70;;;18.70;99.90;;;;;;5045432;28;20056;-73
2021/10/08 13:13:36;;;;;;;1.60;0.80;;;21.60;99.90;;;;;;5044792;28;20060;-75
2021/10/08 13:16:40;;;;;;;1.00;0.63;;;24.10;99.90;;;;;;5044198;28;20040;-75
2021/10/08 13:19:48;;;;;;;2.60;0.52;;;23.40;99.00;;;;;;5046870;28;20048;-74
2021/10/08 13:22:57;;;;;;;3.13;0.50;;;22.60;99.70;;;;;;5050360;28;20048;-74
2021/10/08 13:26:01;;;;;;;2.53;0.80;;;21.50;99.90;;;;;;5045974;28;20427;-73
2021/10/08 13:29:06;;;;;;;1.90;0.90;;;20.80;99.90;;;;;;5043319;28;20534;-73
2021/10/08 13:32:09;;;;;;;2.45;0.77;;;20.30;99.90;;;;;;5039082;28;20033;-73
2021/10/08 13:35:14;;;;;;;2.10;0.60;;;19.90;99.90;;;;;;5034861;28;20044;-73
2021/10/08 13:38:19;;;;;;;2.45;1.00;;;19.70;99.90;;;;;;5042162;28;20076;-73
2021/10/08 13:41:24;;;;;;;3.33;0.80;;;19.10;99.90;;;;;;5043735;28;20044;-73
2021/10/08 13:44:28;;;;;;;1.27;0.68;;;18.90;99.90;;;;;;5045391;28;20036;-73
2021/10/08 13:47:34;;;;;;;6.28;0.85;;;18.70;99.90;;;;;;5036801;28;20066;-73
2021/10/08 13:50:39;;;;;;;3.35;0.95;;;18.40;99.90;;;;;;5040970;28;20507;-72
2021/10/08 13:53:44;;;;;;;3.30;1.00;;;18.40;99.90;;;;;;5035252;28;20025;-73
2021/10/08 13:56:48;;;;;;;0.93;0.73;;;18.30;99.90;;;;;;5044508;28;20048;-74
2021/10/08 13:59:53;;;;;;;2.05;0.68;;;18.50;99.90;;;;;;5033013;28;20049;-73
2021/10/08 14:03:11;;;;;;;4.50;0.60;;;18.50;99.90;;;;;;5042245;28;20044;-73
2021/10/08 14:12:51;;;;;;;3.25;0.73;;;18.60;99.90;;;;;;5037544;28;20037;-74
2021/10/08 14:15:56;;;;;;;8.25;1.20;;;18.70;99.90;;;;;;5034963;28;20071;-73
2021/10/08 14:19:01;;;;;;;0.75;0.50;;;18.90;99.90;;;;;;5041320;28;20085;-74
2021/10/08 14:22:05;;;;;;;1.75;0.80;;;19.00;99.90;;;;;;5032144;28;20032;-73
2021/10/08 14:25:09;;;;;;;3.78;1.00;;;19.20;99.90;;;;;;5043361;28;20601;-73
2021/10/08 14:28:13;;;;;;;2.63;0.88;;;19.50;99.90;;;;;;5045601;28;20809;-74
2021/10/08 14:31:16;;;;;;;6.68;1.63;;;19.40;99.90;;;;;;5034605;28;20048;-73
2021/10/08 14:34:20;;;;;;;3.13;1.70;;;19.30;99.90;;;;;;5048290;28;20064;-74
2021/10/08 14:37:25;;;;;;;4.93;1.40;;;18.90;99.90;;;;;;5043448;28;20056;-73
2021/10/08 14:40:31;;;;;;;1.83;1.10;;;18.50;99.90;;;;;;5048786;28;20400;-73
2021/10/08 14:43:35;;;;;;;5.53;1.63;;;18.20;99.90;;;;;;5037885;28;20266;-73
2021/10/08 14:46:39;;;;;;;1.70;1.20;;;18.00;99.90;;;;;;5047463;28;20063;-73
2021/10/08 14:49:45;;;;;;;5.28;1.80;;;17.60;99.90;;;;;;5046693;28;20028;-73
2021/10/08 14:52:49;;;;;;;5.20;1.73;;;17.40;99.90;;;;;;5037744;28;20423;-73
2021/10/08 14:59:15;;;;;;;5.55;1.70;;;17.30;99.90;;;;;;5037827;28;20045;-72
2021/10/08 15:02:23;;;;;;;2.47;1.17;;;17.30;99.90;;;;;;5043580;28;20057;-72
2021/10/08 15:05:27;;;;;;;6.55;1.15;;;17.20;99.90;;;;;;5048855;28;20052;-72
2021/10/08 15:08:31;;;;;;;7.30;1.40;;;17.00;99.90;;;;;;5032361;28;20037;-72
2021/10/08 15:11:35;;;;;;;4.97;1.30;;;16.80;99.90;;;;;;5035967;28;20048;-73
2021/10/08 15:14:39;;;;;;;1.60;0.90;;;16.60;99.90;;;;;;5051188;28;20065;-73
2021/10/08 15:17:44;;;;;;;8.43;1.10;;;16.50;99.90;;;;;;5036563;28;20040;-73
2021/10/08 15:20:48;;;;;;;5.50;1.70;;;16.40;99.90;;;;;;5036825;28;20043;-73
2021/10/08 15:23:52;;;;;;;5.00;1.30;;;16.40;99.90;;;;;;5050559;28;20040;-75
2021/10/08 15:26:57;;;;;;;4.82;1.20;;;16.30;99.90;;;;;;5032866;28;20044;-73
2021/10/08 15:30:02;;;;;;;5.70;1.05;;;16.20;99.90;;;;;;5038865;28;20384;-74
2021/10/08 15:33:06;;;;;;;5.63;1.20;;;16.10;99.90;;;;;;5032289;28;20048;-74
2021/10/08 15:36:10;;;;;;;3.38;1.17;;;15.90;99.90;;;;;;5030077;28;20495;-73
2021/10/08 15:39:14;;;;;;;2.47;0.77;;;15.90;99.90;;;;;;5030392;28;20041;-72
2021/10/08 15:42:19;;;;;;;1.98;0.90;;;16.00;99.90;;;;;;5029817;28;20048;-72
2021/10/08 15:45:23;;;;;;;2.63;0.90;;;16.10;99.90;;;;;;5030988;28;20037;-73
2021/10/08 15:48:29;;;;;;;3.50;1.20;;;16.20;99.90;;;;;;5030194;28;20514;-72
2021/10/08 15:51:34;;;;;;;2.80;0.73;;;16.20;99.90;;;;;;5032204;28;20052;-73
2021/10/08 15:54:40;;;;;;;2.97;0.80;;;16.10;99.90;;;;;;5030643;28;20044;-72
2021/10/08 15:57:44;;;;;;;2.13;1.02;;;16.10;99.90;;;;;;5040717;28;20064;-73
2021/10/08 16:00:48;;;;;;;2.08;0.80;;;16.20;99.90;;;;;;5049408;28;20059;-72
2021/10/08 16:03:52;;;;;;;4.43;0.80;;;16.10;99.90;;;;;;5050545;28;20048;-71
2021/10/08 16:06:56;;;;;;;2.35;0.82;;;16.10;99.90;;;;;;5032366;28;20408;-73
2021/10/08 16:10:00;;;;;;;6.28;1.38;;;16.20;99.90;;;;;;5037380;28;20060;-72
2021/10/08 16:13:08;;;;;;;4.55;1.30;;;16.00;99.90;;;;;;5051207;28;20325;-72
2021/10/08 16:16:12;;;;;;;1.92;0.70;;;15.90;99.90;;;;;;5036746;28;20499;-72
2021/10/08 16:19:21;;;;;;;3.78;0.98;;;15.90;99.90;;;;;;5035578;28;20037;-72
2021/10/08 16:22:26;;;;;;;4.32;1.25;;;15.90;99.90;;;;;;5031394;28;20040;-72
2021/10/08 16:25:31;;;;;;;3.13;1.30;;;15.90;99.90;;;;;;5048077;28;20036;-70
2021/10/08 16:28:35;;;;;;;1.85;0.98;;;15.90;99.90;;;;;;5048787;28;20394;-71
2021/10/08 16:31:39;;;;;;;1.80;0.90;;;15.90;99.90;;;;;;5050076;28;20048;-71